sensor_id;sensor_type;location;lat;lon;timestamp;P1;durP1;ratioP1;P2;durP2;ratioP2
22644;SDS011;11489;50.834;6.752;2023-05-08T00:00:22;14.52;;;10.90;;
22644;SDS011;11489;50.834;6.752;2023-05-08T00:02:47;14.93;;;11.48;;
22644;SDS011;11489;50.834;6.752;2023-05-08T00:05:13;13.05;;;10.57;;
22644;SDS011;11489;50.834;6.752;2023-05-08T00:07:40;15.85;;;10.57;;
22644;SDS011;11489;50.834;6.752;2023-05-08T00:10:06;13.90;;;11.25;;
22644;SDS011;11489;50.834;6.752;2023-05-08T00:12:32;12.75;;;10.13;;
22644;SDS011;11489;50.834;6.752;2023-05-08T00:14:58;12.40;;;9.57;;
22644;SDS011;11489;50.834;6.752;2023-05-08T00:17:24;12.57;;;9.98;;
22644;SDS011;11489;50.834;6.752;2023-05-08T00:19:50;12.98;;;10.55;;
22644;SDS011;11489;50.834;6.752;2023-05-08T00:22:17;12.10;;;9.73;;
22644;SDS011;11489;50.834;6.752;2023-05-08T00:24:43;12.82;;;9.50;;
22644;SDS011;11489;50.834;6.752;2023-05-08T00:27:09;12.73;;;9.82;;
22644;SDS011;11489;50.834;6.752;2023-05-08T00:29:35;12.02;;;9.60;;
22644;SDS011;11489;50.834;6.752;2023-05-08T00:32:01;12.13;;;9.55;;
22644;SDS011;11489;50.834;6.752;2023-05-08T00:34:27;10.93;;;9.13;;
22644;SDS011;11489;50.834;6.752;2023-05-08T00:36:52;10.55;;;9.25;;
22644;SDS011;11489;50.834;6.752;2023-05-08T00:39:20;14.32;;;9.48;;
22644;SDS011;11489;50.834;6.752;2023-05-08T00:41:46;11.00;;;9.02;;
22644;SDS011;11489;50.834;6.752;2023-05-08T00:44:11;12.93;;;9.30;;
22644;SDS011;11489;50.834;6.752;2023-05-08T00:46:37;12.05;;;8.90;;
22644;SDS011;11489;50.834;6.752;2023-05-08T00:49:04;9.18;;;7.93;;
22644;SDS011;11489;50.834;6.752;2023-05-08T00:51:30;12.65;;;9.35;;
22644;SDS011;11489;50.834;6.752;2023-05-08T00:53:57;11.23;;;8.93;;
22644;SDS011;11489;50.834;6.752;2023-05-08T00:56:24;11.60;;;8.65;;
22644;SDS011;11489;50.834;6.752;2023-05-08T00:58:51;10.80;;;8.85;;
22644;SDS011;11489;50.834;6.752;2023-05-08T01:01:16;10.93;;;8.98;;
22644;SDS011;11489;50.834;6.752;2023-05-08T01:03:42;10.55;;;7.97;;
22644;SDS011;11489;50.834;6.752;2023-05-08T01:06:09;9.93;;;7.88;;
22644;SDS011;11489;50.834;6.752;2023-05-08T01:08:34;11.10;;;8.00;;
22644;SDS011;11489;50.834;6.752;2023-05-08T01:22:30;9.50;;;7.72;;
22644;SDS011;11489;50.834;6.752;2023-05-08T01:25:07;9.57;;;7.35;;
22644;SDS011;11489;50.834;6.752;2023-05-08T01:28:12;11.63;;;7.07;;
22644;SDS011;11489;50.834;6.752;2023-05-08T01:33:48;10.25;;;7.20;;
22644;SDS011;11489;50.834;6.752;2023-05-08T01:41:47;7.63;;;6.57;;
22644;SDS011;11489;50.834;6.752;2023-05-08T01:44:22;9.50;;;6.55;;
22644;SDS011;11489;50.834;6.752;2023-05-08T01:46:52;8.18;;;6.80;;
22644;SDS011;11489;50.834;6.752;2023-05-08T01:49:25;11.02;;;7.03;;
22644;SDS011;11489;50.834;6.752;2023-05-08T01:52:13;8.90;;;7.38;;
22644;SDS011;11489;50.834;6.752;2023-05-08T01:54:47;8.57;;;7.25;;
22644;SDS011;11489;50.834;6.752;2023-05-08T01:57:23;10.60;;;7.57;;
22644;SDS011;11489;50.834;6.752;2023-05-08T01:59:51;9.07;;;7.30;;
22644;SDS011;11489;50.834;6.752;2023-05-08T02:02:18;9.15;;;7.07;;
22644;SDS011;11489;50.834;6.752;2023-05-08T02:04:46;8.45;;;7.07;;
22644;SDS011;11489;50.834;6.752;2023-05-08T02:07:13;9.25;;;7.25;;
22644;SDS011;11489;50.834;6.752;2023-05-08T02:09:40;9.60;;;7.57;;
22644;SDS011;11489;50.834;6.752;2023-05-08T02:12:07;10.65;;;7.50;;
22644;SDS011;11489;50.834;6.752;2023-05-08T02:14:34;9.00;;;7.55;;
22644;SDS011;11489;50.834;6.752;2023-05-08T02:17:01;8.48;;;7.18;;
22644;SDS011;11489;50.834;6.752;2023-05-08T02:19:27;8.10;;;6.72;;
22644;SDS011;11489;50.834;6.752;2023-05-08T02:21:55;8.88;;;7.13;;
22644;SDS011;11489;50.834;6.752;2023-05-08T02:24:23;10.50;;;7.35;;
22644;SDS011;11489;50.834;6.752;2023-05-08T02:26:50;9.27;;;7.72;;
22644;SDS011;11489;50.834;6.752;2023-05-08T02:29:18;8.55;;;7.25;;
22644;SDS011;11489;50.834;6.752;2023-05-08T02:31:46;8.90;;;7.38;;
22644;SDS011;11489;50.834;6.752;2023-05-08T02:34:13;8.48;;;7.43;;
22644;SDS011;11489;50.834;6.752;2023-05-08T02:36:40;11.63;;;7.40;;
22644;SDS011;11489;50.834;6.752;2023-05-08T02:39:06;8.73;;;6.85;;
22644;SDS011;11489;50.834;6.752;2023-05-08T02:41:35;29.50;;;7.68;;
22644;SDS011;11489;50.834;6.752;2023-05-08T02:44:04;10.05;;;6.85;;
22644;SDS011;11489;50.834;6.752;2023-05-08T02:52:15;10.55;;;7.47;;
22644;SDS011;11489;50.834;6.752;2023-05-08T02:55:02;8.20;;;7.13;;
22644;SDS011;11489;50.834;6.752;2023-05-08T02:57:36;9.70;;;7.57;;
22644;SDS011;11489;50.834;6.752;2023-05-08T03:02:38;8.98;;;7.88;;
22644;SDS011;11489;50.834;6.752;2023-05-08T03:05:13;7.88;;;6.80;;
22644;SDS011;11489;50.834;6.752;2023-05-08T03:07:46;7.53;;;6.72;;
22644;SDS011;11489;50.834;6.752;2023-05-08T03:10:15;7.95;;;7.15;;
22644;SDS011;11489;50.834;6.752;2023-05-08T03:12:44;7.38;;;6.68;;
22644;SDS011;11489;50.834;6.752;2023-05-08T03:17:51;11.57;;;6.72;;
22644;SDS011;11489;50.834;6.752;2023-05-08T03:20:21;8.10;;;6.95;;
22644;SDS011;11489;50.834;6.752;2023-05-08T03:22:50;11.73;;;7.85;;
22644;SDS011;11489;50.834;6.752;2023-05-08T03:25:18;9.30;;;7.65;;
22644;SDS011;11489;50.834;6.752;2023-05-08T03:27:45;11.68;;;8.00;;
22644;SDS011;11489;50.834;6.752;2023-05-08T03:30:13;8.15;;;7.35;;
22644;SDS011;11489;50.834;6.752;2023-05-08T03:32:41;8.20;;;7.38;;
22644;SDS011;11489;50.834;6.752;2023-05-08T03:35:10;8.70;;;7.80;;
22644;SDS011;11489;50.834;6.752;2023-05-08T03:37:36;8.20;;;7.18;;
22644;SDS011;11489;50.834;6.752;2023-05-08T03:40:02;7.70;;;6.93;;
22644;SDS011;11489;50.834;6.752;2023-05-08T03:42:27;7.63;;;6.88;;
22644;SDS011;11489;50.834;6.752;2023-05-08T03:44:55;9.43;;;7.05;;
22644;SDS011;11489;50.834;6.752;2023-05-08T03:47:22;7.50;;;6.72;;
22644;SDS011;11489;50.834;6.752;2023-05-08T03:49:52;7.90;;;7.05;;
22644;SDS011;11489;50.834;6.752;2023-05-08T03:52:19;9.60;;;6.55;;
22644;SDS011;11489;50.834;6.752;2023-05-08T03:54:45;8.55;;;7.47;;
22644;SDS011;11489;50.834;6.752;2023-05-08T03:57:10;9.27;;;7.57;;
22644;SDS011;11489;50.834;6.752;2023-05-08T03:59:51;8.25;;;7.45;;
22644;SDS011;11489;50.834;6.752;2023-05-08T04:02:43;8.45;;;7.20;;
22644;SDS011;11489;50.834;6.752;2023-05-08T04:05:16;8.75;;;6.90;;
22644;SDS011;11489;50.834;6.752;2023-05-08T04:07:52;9.23;;;7.90;;
22644;SDS011;11489;50.834;6.752;2023-05-08T04:10:26;10.05;;;8.57;;
22644;SDS011;11489;50.834;6.752;2023-05-08T04:13:09;11.75;;;9.25;;
22644;SDS011;11489;50.834;6.752;2023-05-08T04:15:38;12.25;;;9.07;;
22644;SDS011;11489;50.834;6.752;2023-05-08T04:18:17;10.25;;;8.32;;
22644;SDS011;11489;50.834;6.752;2023-05-08T04:20:49;12.82;;;9.35;;
22644;SDS011;11489;50.834;6.752;2023-05-08T04:23:19;11.48;;;9.20;;
22644;SDS011;11489;50.834;6.752;2023-05-08T04:25:46;11.93;;;9.02;;
22644;SDS011;11489;50.834;6.752;2023-05-08T04:28:13;12.48;;;9.60;;
22644;SDS011;11489;50.834;6.752;2023-05-08T04:30:40;13.27;;;9.15;;
22644;SDS011;11489;50.834;6.752;2023-05-08T04:33:06;13.43;;;10.25;;
22644;SDS011;11489;50.834;6.752;2023-05-08T04:35:32;12.15;;;10.02;;
22644;SDS011;11489;50.834;6.752;2023-05-08T04:37:58;14.07;;;10.73;;
22644;SDS011;11489;50.834;6.752;2023-05-08T04:40:24;13.57;;;10.63;;
22644;SDS011;11489;50.834;6.752;2023-05-08T04:42:50;14.77;;;10.25;;
22644;SDS011;11489;50.834;6.752;2023-05-08T04:45:16;14.23;;;10.65;;
22644;SDS011;11489;50.834;6.752;2023-05-08T04:47:42;14.75;;;10.73;;
22644;SDS011;11489;50.834;6.752;2023-05-08T04:50:08;15.60;;;10.98;;
22644;SDS011;11489;50.834;6.752;2023-05-08T04:52:34;14.32;;;10.80;;
22644;SDS011;11489;50.834;6.752;2023-05-08T04:55:00;15.85;;;10.95;;
22644;SDS011;11489;50.834;6.752;2023-05-08T04:57:25;15.20;;;10.85;;
22644;SDS011;11489;50.834;6.752;2023-05-08T04:59:51;17.50;;;11.40;;
22644;SDS011;11489;50.834;6.752;2023-05-08T05:02:17;17.30;;;11.35;;
22644;SDS011;11489;50.834;6.752;2023-05-08T05:04:42;18.25;;;11.63;;
22644;SDS011;11489;50.834;6.752;2023-05-08T05:07:08;19.13;;;12.30;;
22644;SDS011;11489;50.834;6.752;2023-05-08T05:09:34;21.95;;;12.95;;
22644;SDS011;11489;50.834;6.752;2023-05-08T05:12:04;19.65;;;12.80;;
22644;SDS011;11489;50.834;6.752;2023-05-08T05:14:31;19.60;;;12.35;;
22644;SDS011;11489;50.834;6.752;2023-05-08T05:16:57;19.60;;;12.88;;
22644;SDS011;11489;50.834;6.752;2023-05-08T05:19:22;24.75;;;13.52;;
22644;SDS011;11489;50.834;6.752;2023-05-08T05:21:48;22.55;;;13.48;;
22644;SDS011;11489;50.834;6.752;2023-05-08T05:24:14;21.55;;;13.50;;
22644;SDS011;11489;50.834;6.752;2023-05-08T05:26:39;20.55;;;13.57;;
22644;SDS011;11489;50.834;6.752;2023-05-08T05:29:05;19.25;;;13.15;;
22644;SDS011;11489;50.834;6.752;2023-05-08T05:31:31;22.17;;;12.35;;
22644;SDS011;11489;50.834;6.752;2023-05-08T05:33:57;19.80;;;13.35;;
22644;SDS011;11489;50.834;6.752;2023-05-08T05:36:23;18.88;;;13.18;;
22644;SDS011;11489;50.834;6.752;2023-05-08T05:38:48;21.08;;;13.52;;
22644;SDS011;11489;50.834;6.752;2023-05-08T05:41:14;18.80;;;12.65;;
22644;SDS011;11489;50.834;6.752;2023-05-08T05:43:39;22.73;;;14.20;;
22644;SDS011;11489;50.834;6.752;2023-05-08T05:46:06;22.60;;;14.13;;
22644;SDS011;11489;50.834;6.752;2023-05-08T05:48:32;20.35;;;13.98;;
22644;SDS011;11489;50.834;6.752;2023-05-08T05:50:58;20.33;;;13.85;;
22644;SDS011;11489;50.834;6.752;2023-05-08T05:53:24;20.33;;;13.85;;
22644;SDS011;11489;50.834;6.752;2023-05-08T05:55:49;18.13;;;12.90;;
22644;SDS011;11489;50.834;6.752;2023-05-08T05:58:15;22.70;;;13.00;;
22644;SDS011;11489;50.834;6.752;2023-05-08T06:00:41;17.50;;;12.52;;
22644;SDS011;11489;50.834;6.752;2023-05-08T06:03:07;17.65;;;13.60;;
22644;SDS011;11489;50.834;6.752;2023-05-08T06:05:35;18.52;;;12.90;;
22644;SDS011;11489;50.834;6.752;2023-05-08T06:08:01;21.88;;;13.30;;
22644;SDS011;11489;50.834;6.752;2023-05-08T06:10:27;18.60;;;12.93;;
22644;SDS011;11489;50.834;6.752;2023-05-08T06:12:53;17.05;;;12.45;;
22644;SDS011;11489;50.834;6.752;2023-05-08T06:15:18;18.45;;;12.30;;
22644;SDS011;11489;50.834;6.752;2023-05-08T06:17:45;18.38;;;12.85;;
22644;SDS011;11489;50.834;6.752;2023-05-08T06:20:10;18.52;;;13.20;;
22644;SDS011;11489;50.834;6.752;2023-05-08T06:22:36;15.43;;;12.10;;
22644;SDS011;11489;50.834;6.752;2023-05-08T06:25:04;16.30;;;12.25;;
22644;SDS011;11489;50.834;6.752;2023-05-08T06:27:34;18.75;;;12.32;;
22644;SDS011;11489;50.834;6.752;2023-05-08T06:29:59;19.13;;;12.00;;
22644;SDS011;11489;50.834;6.752;2023-05-08T06:32:25;15.55;;;11.93;;
22644;SDS011;11489;50.834;6.752;2023-05-08T06:34:51;16.67;;;11.60;;
22644;SDS011;11489;50.834;6.752;2023-05-08T06:37:17;16.08;;;11.98;;
22644;SDS011;11489;50.834;6.752;2023-05-08T06:39:42;16.15;;;11.55;;
22644;SDS011;11489;50.834;6.752;2023-05-08T06:42:08;16.48;;;12.13;;
22644;SDS011;11489;50.834;6.752;2023-05-08T06:44:34;15.90;;;11.15;;
22644;SDS011;11489;50.834;6.752;2023-05-08T06:47:00;17.40;;;12.25;;
22644;SDS011;11489;50.834;6.752;2023-05-08T06:49:26;14.45;;;11.40;;
22644;SDS011;11489;50.834;6.752;2023-05-08T06:51:51;16.35;;;11.48;;
22644;SDS011;11489;50.834;6.752;2023-05-08T06:54:17;17.88;;;12.15;;
22644;SDS011;11489;50.834;6.752;2023-05-08T06:56:43;16.55;;;11.43;;
22644;SDS011;11489;50.834;6.752;2023-05-08T06:59:09;14.00;;;10.73;;
22644;SDS011;11489;50.834;6.752;2023-05-08T07:01:34;13.68;;;10.38;;
22644;SDS011;11489;50.834;6.752;2023-05-08T07:04:01;14.98;;;11.07;;
22644;SDS011;11489;50.834;6.752;2023-05-08T07:06:27;15.50;;;10.82;;
22644;SDS011;11489;50.834;6.752;2023-05-08T07:08:54;15.05;;;11.02;;
22644;SDS011;11489;50.834;6.752;2023-05-08T07:11:20;16.48;;;11.43;;
22644;SDS011;11489;50.834;6.752;2023-05-08T07:13:46;16.30;;;11.55;;
22644;SDS011;11489;50.834;6.752;2023-05-08T07:16:12;14.90;;;11.32;;
22644;SDS011;11489;50.834;6.752;2023-05-08T07:18:38;15.10;;;11.15;;
22644;SDS011;11489;50.834;6.752;2023-05-08T07:21:04;13.48;;;10.55;;
22644;SDS011;11489;50.834;6.752;2023-05-08T07:23:30;13.27;;;10.50;;
22644;SDS011;11489;50.834;6.752;2023-05-08T07:25:55;16.00;;;10.15;;
22644;SDS011;11489;50.834;6.752;2023-05-08T07:28:22;13.35;;;9.93;;
22644;SDS011;11489;50.834;6.752;2023-05-08T07:30:47;14.32;;;10.35;;
22644;SDS011;11489;50.834;6.752;2023-05-08T07:33:13;12.07;;;9.57;;
22644;SDS011;11489;50.834;6.752;2023-05-08T07:35:39;12.40;;;9.43;;
22644;SDS011;11489;50.834;6.752;2023-05-08T07:38:05;16.00;;;9.85;;
22644;SDS011;11489;50.834;6.752;2023-05-08T07:40:31;11.35;;;9.32;;
22644;SDS011;11489;50.834;6.752;2023-05-08T07:42:56;11.50;;;9.10;;
22644;SDS011;11489;50.834;6.752;2023-05-08T07:45:22;12.68;;;9.13;;
22644;SDS011;11489;50.834;6.752;2023-05-08T07:47:52;13.45;;;9.80;;
22644;SDS011;11489;50.834;6.752;2023-05-08T07:50:19;13.70;;;9.40;;
22644;SDS011;11489;50.834;6.752;2023-05-08T07:52:46;11.85;;;9.40;;
22644;SDS011;11489;50.834;6.752;2023-05-08T07:55:12;12.13;;;9.30;;
22644;SDS011;11489;50.834;6.752;2023-05-08T07:57:38;13.27;;;10.13;;
22644;SDS011;11489;50.834;6.752;2023-05-08T08:00:14;14.98;;;9.15;;
22644;SDS011;11489;50.834;6.752;2023-05-08T08:02:41;11.77;;;8.57;;
22644;SDS011;11489;50.834;6.752;2023-05-08T08:05:07;15.45;;;7.88;;
22644;SDS011;11489;50.834;6.752;2023-05-08T08:07:33;10.52;;;8.82;;
22644;SDS011;11489;50.834;6.752;2023-05-08T08:10:00;13.48;;;8.77;;
22644;SDS011;11489;50.834;6.752;2023-05-08T08:12:27;12.60;;;8.43;;
22644;SDS011;11489;50.834;6.752;2023-05-08T08:14:53;10.73;;;8.85;;
22644;SDS011;11489;50.834;6.752;2023-05-08T08:17:20;11.15;;;8.32;;
22644;SDS011;11489;50.834;6.752;2023-05-08T08:19:46;9.73;;;8.23;;
22644;SDS011;11489;50.834;6.752;2023-05-08T08:22:12;10.57;;;8.30;;
22644;SDS011;11489;50.834;6.752;2023-05-08T08:24:38;9.35;;;8.00;;
22644;SDS011;11489;50.834;6.752;2023-05-08T08:27:04;10.13;;;8.10;;
22644;SDS011;11489;50.834;6.752;2023-05-08T08:29:29;10.02;;;8.35;;
22644;SDS011;11489;50.834;6.752;2023-05-08T08:31:55;8.98;;;7.50;;
22644;SDS011;11489;50.834;6.752;2023-05-08T08:34:21;8.60;;;7.70;;
22644;SDS011;11489;50.834;6.752;2023-05-08T08:36:47;9.60;;;8.30;;
22644;SDS011;11489;50.834;6.752;2023-05-08T08:39:12;8.75;;;7.55;;
22644;SDS011;11489;50.834;6.752;2023-05-08T08:41:38;8.57;;;7.63;;
22644;SDS011;11489;50.834;6.752;2023-05-08T08:44:04;7.88;;;7.05;;
22644;SDS011;11489;50.834;6.752;2023-05-08T08:46:30;12.35;;;7.45;;
22644;SDS011;11489;50.834;6.752;2023-05-08T08:49:01;10.60;;;6.97;;
22644;SDS011;11489;50.834;6.752;2023-05-08T08:51:32;8.20;;;7.40;;
22644;SDS011;11489;50.834;6.752;2023-05-08T08:54:09;10.10;;;7.15;;
22644;SDS011;11489;50.834;6.752;2023-05-08T08:56:38;8.07;;;7.25;;
22644;SDS011;11489;50.834;6.752;2023-05-08T08:59:05;8.23;;;7.13;;
22644;SDS011;11489;50.834;6.752;2023-05-08T09:01:33;8.68;;;7.75;;
22644;SDS011;11489;50.834;6.752;2023-05-08T09:04:02;8.82;;;7.90;;
22644;SDS011;11489;50.834;6.752;2023-05-08T09:06:28;10.10;;;7.30;;
22644;SDS011;11489;50.834;6.752;2023-05-08T09:08:54;8.48;;;7.38;;
22644;SDS011;11489;50.834;6.752;2023-05-08T09:11:22;8.85;;;7.35;;
22644;SDS011;11489;50.834;6.752;2023-05-08T09:13:48;11.35;;;7.60;;
22644;SDS011;11489;50.834;6.752;2023-05-08T09:16:14;8.13;;;7.32;;
22644;SDS011;11489;50.834;6.752;2023-05-08T09:18:40;10.63;;;7.13;;
22644;SDS011;11489;50.834;6.752;2023-05-08T09:21:06;9.13;;;7.60;;
22644;SDS011;11489;50.834;6.752;2023-05-08T09:23:31;8.05;;;7.25;;
22644;SDS011;11489;50.834;6.752;2023-05-08T09:26:00;9.57;;;8.50;;
22644;SDS011;11489;50.834;6.752;2023-05-08T09:28:25;13.00;;;8.20;;
22644;SDS011;11489;50.834;6.752;2023-05-08T09:33:21;8.60;;;7.43;;
22644;SDS011;11489;50.834;6.752;2023-05-08T09:35:49;8.73;;;7.53;;
22644;SDS011;11489;50.834;6.752;2023-05-08T09:43:36;10.70;;;8.55;;
22644;SDS011;11489;50.834;6.752;2023-05-08T09:46:18;10.73;;;8.80;;
22644;SDS011;11489;50.834;6.752;2023-05-08T09:48:49;9.77;;;8.38;;
22644;SDS011;11489;50.834;6.752;2023-05-08T09:51:15;11.10;;;8.57;;
22644;SDS011;11489;50.834;6.752;2023-05-08T09:53:41;11.25;;;8.73;;
22644;SDS011;11489;50.834;6.752;2023-05-08T09:56:07;9.15;;;7.82;;
22644;SDS011;11489;50.834;6.752;2023-05-08T09:58:40;9.55;;;7.80;;
22644;SDS011;11489;50.834;6.752;2023-05-08T10:01:08;9.88;;;8.20;;
22644;SDS011;11489;50.834;6.752;2023-05-08T10:04:00;9.20;;;8.10;;
22644;SDS011;11489;50.834;6.752;2023-05-08T10:06:27;9.75;;;8.55;;
22644;SDS011;11489;50.834;6.752;2023-05-08T10:09:09;11.73;;;8.45;;
22644;SDS011;11489;50.834;6.752;2023-05-08T10:11:37;10.32;;;8.90;;
22644;SDS011;11489;50.834;6.752;2023-05-08T10:14:16;10.90;;;9.05;;
22644;SDS011;11489;50.834;6.752;2023-05-08T10:16:43;10.18;;;8.82;;
22644;SDS011;11489;50.834;6.752;2023-05-08T10:19:13;11.48;;;8.98;;
22644;SDS011;11489;50.834;6.752;2023-05-08T10:21:41;9.50;;;8.48;;
22644;SDS011;11489;50.834;6.752;2023-05-08T10:24:19;9.55;;;8.55;;
22644;SDS011;11489;50.834;6.752;2023-05-08T10:26:55;11.32;;;8.27;;
22644;SDS011;11489;50.834;6.752;2023-05-08T10:29:24;9.90;;;8.40;;
22644;SDS011;11489;50.834;6.752;2023-05-08T10:31:57;11.40;;;8.43;;
22644;SDS011;11489;50.834;6.752;2023-05-08T10:34:23;10.07;;;8.95;;
22644;SDS011;11489;50.834;6.752;2023-05-08T10:36:52;11.45;;;8.80;;
22644;SDS011;11489;50.834;6.752;2023-05-08T10:39:19;13.25;;;8.48;;
22644;SDS011;11489;50.834;6.752;2023-05-08T10:41:46;13.05;;;8.98;;
22644;SDS011;11489;50.834;6.752;2023-05-08T10:44:13;12.10;;;8.70;;
22644;SDS011;11489;50.834;6.752;2023-05-08T10:46:50;10.40;;;8.23;;
22644;SDS011;11489;50.834;6.752;2023-05-08T10:52:23;10.32;;;7.95;;
22644;SDS011;11489;50.834;6.752;2023-05-08T10:55:21;10.82;;;8.30;;
22644;SDS011;11489;50.834;6.752;2023-05-08T10:58:11;9.57;;;7.88;;
22644;SDS011;11489;50.834;6.752;2023-05-08T11:03:25;11.52;;;8.40;;
22644;SDS011;11489;50.834;6.752;2023-05-08T11:05:52;9.38;;;8.23;;
22644;SDS011;11489;50.834;6.752;2023-05-08T11:08:21;9.93;;;8.52;;
22644;SDS011;11489;50.834;6.752;2023-05-08T11:13:27;13.10;;;8.48;;
22644;SDS011;11489;50.834;6.752;2023-05-08T11:15:55;12.20;;;8.73;;
22644;SDS011;11489;50.834;6.752;2023-05-08T11:18:21;11.70;;;9.00;;
22644;SDS011;11489;50.834;6.752;2023-05-08T11:20:57;11.00;;;8.93;;
22644;SDS011;11489;50.834;6.752;2023-05-08T11:23:24;11.25;;;8.57;;
22644;SDS011;11489;50.834;6.752;2023-05-08T11:28:39;10.85;;;8.57;;
22644;SDS011;11489;50.834;6.752;2023-05-08T11:31:06;9.35;;;8.40;;
22644;SDS011;11489;50.834;6.752;2023-05-08T11:33:33;13.40;;;9.38;;
22644;SDS011;11489;50.834;6.752;2023-05-08T11:38:38;12.10;;;9.15;;
22644;SDS011;11489;50.834;6.752;2023-05-08T11:41:21;13.75;;;9.25;;
22644;SDS011;11489;50.834;6.752;2023-05-08T11:46:33;10.90;;;8.85;;
22644;SDS011;11489;50.834;6.752;2023-05-08T11:49:03;9.77;;;8.77;;
22644;SDS011;11489;50.834;6.752;2023-05-08T11:51:29;9.93;;;8.38;;
22644;SDS011;11489;50.834;6.752;2023-05-08T11:53:57;9.13;;;8.13;;
22644;SDS011;11489;50.834;6.752;2023-05-08T11:56:24;9.52;;;8.18;;
22644;SDS011;11489;50.834;6.752;2023-05-08T11:59:11;8.70;;;7.85;;
22644;SDS011;11489;50.834;6.752;2023-05-08T12:01:37;8.23;;;6.60;;
22644;SDS011;11489;50.834;6.752;2023-05-08T12:04:07;8.70;;;7.10;;
22644;SDS011;11489;50.834;6.752;2023-05-08T12:06:34;8.20;;;6.40;;
22644;SDS011;11489;50.834;6.752;2023-05-08T12:09:02;7.05;;;6.32;;
22644;SDS011;11489;50.834;6.752;2023-05-08T12:11:34;8.93;;;6.13;;
22644;SDS011;11489;50.834;6.752;2023-05-08T12:14:01;6.22;;;5.63;;
22644;SDS011;11489;50.834;6.752;2023-05-08T12:16:26;6.65;;;5.88;;
22644;SDS011;11489;50.834;6.752;2023-05-08T12:18:55;6.00;;;5.35;;
22644;SDS011;11489;50.834;6.752;2023-05-08T12:21:20;5.55;;;5.00;;
22644;SDS011;11489;50.834;6.752;2023-05-08T12:23:46;5.88;;;4.88;;
22644;SDS011;11489;50.834;6.752;2023-05-08T12:26:13;4.53;;;4.10;;
22644;SDS011;11489;50.834;6.752;2023-05-08T12:28:42;4.50;;;4.10;;
22644;SDS011;11489;50.834;6.752;2023-05-08T12:31:12;5.43;;;4.53;;
22644;SDS011;11489;50.834;6.752;2023-05-08T12:33:38;5.55;;;4.63;;
22644;SDS011;11489;50.834;6.752;2023-05-08T12:36:04;5.60;;;4.97;;
22644;SDS011;11489;50.834;6.752;2023-05-08T12:38:30;5.38;;;4.88;;
22644;SDS011;11489;50.834;6.752;2023-05-08T12:40:56;4.90;;;4.40;;
22644;SDS011;11489;50.834;6.752;2023-05-08T12:43:32;7.25;;;4.15;;
22644;SDS011;11489;50.834;6.752;2023-05-08T12:45:59;3.47;;;3.17;;
22644;SDS011;11489;50.834;6.752;2023-05-08T12:48:25;3.72;;;3.42;;
22644;SDS011;11489;50.834;6.752;2023-05-08T12:50:59;5.53;;;3.70;;
22644;SDS011;11489;50.834;6.752;2023-05-08T12:53:28;4.05;;;3.60;;
22644;SDS011;11489;50.834;6.752;2023-05-08T12:55:55;3.65;;;3.35;;
22644;SDS011;11489;50.834;6.752;2023-05-08T12:58:25;4.45;;;3.70;;
22644;SDS011;11489;50.834;6.752;2023-05-08T13:00:53;4.88;;;4.07;;
22644;SDS011;11489;50.834;6.752;2023-05-08T13:03:37;4.57;;;3.60;;
22644;SDS011;11489;50.834;6.752;2023-05-08T13:06:03;4.30;;;3.80;;
22644;SDS011;11489;50.834;6.752;2023-05-08T13:08:30;4.65;;;4.15;;
22644;SDS011;11489;50.834;6.752;2023-05-08T13:10:58;4.82;;;3.90;;
22644;SDS011;11489;50.834;6.752;2023-05-08T13:13:25;4.38;;;3.97;;
22644;SDS011;11489;50.834;6.752;2023-05-08T13:15:52;8.45;;;4.30;;
22644;SDS011;11489;50.834;6.752;2023-05-08T13:18:19;7.78;;;4.13;;
22644;SDS011;11489;50.834;6.752;2023-05-08T13:20:47;5.25;;;4.13;;
22644;SDS011;11489;50.834;6.752;2023-05-08T13:23:13;5.20;;;3.90;;
22644;SDS011;11489;50.834;6.752;2023-05-08T13:25:39;6.57;;;4.18;;
22644;SDS011;11489;50.834;6.752;2023-05-08T13:28:05;4.57;;;3.80;;
22644;SDS011;11489;50.834;6.752;2023-05-08T13:30:33;3.45;;;3.15;;
22644;SDS011;11489;50.834;6.752;2023-05-08T13:32:59;3.75;;;3.33;;
22644;SDS011;11489;50.834;6.752;2023-05-08T13:35:25;4.63;;;3.60;;
22644;SDS011;11489;50.834;6.752;2023-05-08T13:37:52;3.63;;;2.85;;
22644;SDS011;11489;50.834;6.752;2023-05-08T13:40:19;3.88;;;3.05;;
22644;SDS011;11489;50.834;6.752;2023-05-08T13:42:44;4.63;;;3.30;;
22644;SDS011;11489;50.834;6.752;2023-05-08T13:45:10;3.47;;;3.05;;
22644;SDS011;11489;50.834;6.752;2023-05-08T13:47:39;4.40;;;3.58;;
22644;SDS011;11489;50.834;6.752;2023-05-08T13:50:05;4.75;;;4.00;;
22644;SDS011;11489;50.834;6.752;2023-05-08T13:52:32;4.25;;;3.85;;
22644;SDS011;11489;50.834;6.752;2023-05-08T13:54:58;3.70;;;3.40;;
22644;SDS011;11489;50.834;6.752;2023-05-08T13:57:23;4.53;;;3.85;;
22644;SDS011;11489;50.834;6.752;2023-05-08T13:59:50;4.00;;;3.50;;
22644;SDS011;11489;50.834;6.752;2023-05-08T14:02:16;4.20;;;3.80;;
22644;SDS011;11489;50.834;6.752;2023-05-08T14:04:42;4.30;;;3.85;;
22644;SDS011;11489;50.834;6.752;2023-05-08T14:07:07;5.68;;;3.53;;
22644;SDS011;11489;50.834;6.752;2023-05-08T14:09:33;4.28;;;3.85;;
22644;SDS011;11489;50.834;6.752;2023-05-08T14:11:59;3.67;;;3.35;;
22644;SDS011;11489;50.834;6.752;2023-05-08T14:14:24;3.72;;;3.28;;
22644;SDS011;11489;50.834;6.752;2023-05-08T14:16:50;3.80;;;3.45;;
22644;SDS011;11489;50.834;6.752;2023-05-08T14:19:16;3.75;;;3.22;;
22644;SDS011;11489;50.834;6.752;2023-05-08T14:21:45;3.63;;;3.10;;
22644;SDS011;11489;50.834;6.752;2023-05-08T14:24:11;3.63;;;3.33;;
22644;SDS011;11489;50.834;6.752;2023-05-08T14:26:36;5.88;;;3.70;;
22644;SDS011;11489;50.834;6.752;2023-05-08T14:29:02;4.18;;;3.75;;
22644;SDS011;11489;50.834;6.752;2023-05-08T14:31:28;4.65;;;3.80;;
22644;SDS011;11489;50.834;6.752;2023-05-08T14:33:54;5.18;;;4.13;;
22644;SDS011;11489;50.834;6.752;2023-05-08T14:36:20;4.97;;;4.35;;
22644;SDS011;11489;50.834;6.752;2023-05-08T14:38:46;4.45;;;4.03;;
22644;SDS011;11489;50.834;6.752;2023-05-08T14:41:11;5.13;;;4.55;;
22644;SDS011;11489;50.834;6.752;2023-05-08T14:43:37;4.65;;;4.25;;
22644;SDS011;11489;50.834;6.752;2023-05-08T14:46:03;5.78;;;4.60;;
22644;SDS011;11489;50.834;6.752;2023-05-08T14:48:28;4.97;;;4.45;;
22644;SDS011;11489;50.834;6.752;2023-05-08T14:50:57;6.63;;;4.53;;
22644;SDS011;11489;50.834;6.752;2023-05-08T14:53:25;4.78;;;4.28;;
22644;SDS011;11489;50.834;6.752;2023-05-08T14:55:57;5.10;;;4.60;;
22644;SDS011;11489;50.834;6.752;2023-05-08T14:58:23;7.15;;;4.13;;
22644;SDS011;11489;50.834;6.752;2023-05-08T15:00:49;4.95;;;4.43;;
22644;SDS011;11489;50.834;6.752;2023-05-08T15:03:15;5.00;;;4.50;;
22644;SDS011;11489;50.834;6.752;2023-05-08T15:05:41;5.53;;;4.97;;
22644;SDS011;11489;50.834;6.752;2023-05-08T15:08:07;6.57;;;5.65;;
22644;SDS011;11489;50.834;6.752;2023-05-08T15:10:34;6.90;;;5.05;;
22644;SDS011;11489;50.834;6.752;2023-05-08T15:13:00;6.07;;;5.03;;
22644;SDS011;11489;50.834;6.752;2023-05-08T15:15:26;5.80;;;5.20;;
22644;SDS011;11489;50.834;6.752;2023-05-08T15:17:51;6.18;;;5.57;;
22644;SDS011;11489;50.834;6.752;2023-05-08T15:20:17;6.18;;;5.57;;
22644;SDS011;11489;50.834;6.752;2023-05-08T15:22:45;7.00;;;6.15;;
22644;SDS011;11489;50.834;6.752;2023-05-08T15:25:10;8.60;;;6.03;;
22644;SDS011;11489;50.834;6.752;2023-05-08T15:27:36;6.80;;;6.10;;
22644;SDS011;11489;50.834;6.752;2023-05-08T15:30:02;7.15;;;6.30;;
22644;SDS011;11489;50.834;6.752;2023-05-08T15:32:28;8.23;;;6.38;;
22644;SDS011;11489;50.834;6.752;2023-05-08T15:34:54;9.65;;;6.00;;
22644;SDS011;11489;50.834;6.752;2023-05-08T15:37:20;7.40;;;6.35;;